createdAt,value
2024-04-12T00:02:30.662Z,78.21
2024-04-12T00:04:59.821Z,78.85
2024-04-12T00:07:26.984Z,78.71
2024-04-12T00:09:55.822Z,79.12
2024-04-12T00:12:29.600Z,78.14
2024-04-12T00:15:02.805Z,78.26
2024-04-12T00:17:33.057Z,77.44
2024-04-12T00:20:21.314Z,79.76
2024-04-12T00:22:50.221Z,78.96
2024-04-12T00:25:16.997Z,79.88
2024-04-12T00:27:43.528Z,79.21
2024-04-12T00:30:10.657Z,81.37
2024-04-12T00:32:37.969Z,81.06
2024-04-12T00:35:07.967Z,81.24
2024-04-12T00:37:35.286Z,80.96
2024-04-12T00:40:02.012Z,80.47
2024-04-12T00:42:33.454Z,80.39
2024-04-12T00:45:04.419Z,81.84
2024-04-12T00:47:35.264Z,82.55
2024-04-12T00:50:04.955Z,82.79
2024-04-12T00:52:35.391Z,82.95
2024-04-12T00:55:10.423Z,85.35
2024-04-12T00:57:39.040Z,83.54
2024-04-12T01:00:11.938Z,85.42
2024-04-12T01:02:43.587Z,84.04
2024-04-12T01:05:16.123Z,84.61
2024-04-12T01:07:52.767Z,85.14
2024-04-12T01:10:26.371Z,84.32
2024-04-12T01:12:58.734Z,84.53
2024-04-12T01:15:38.874Z,84.20
2024-04-12T01:18:13.536Z,84.34
2024-04-12T01:20:41.437Z,83.77
2024-04-12T01:23:08.297Z,83.13
2024-04-12T01:25:35.868Z,82.76
2024-04-12T01:28:05.920Z,83.49
2024-04-12T01:30:32.943Z,84.14
2024-04-12T01:33:00.438Z,83.00
2024-04-12T01:35:35.228Z,83.00
2024-04-12T01:38:21.828Z,83.95
2024-04-12T01:41:06.670Z,84.57
2024-04-12T01:43:39.639Z,83.76
2024-04-12T01:46:09.235Z,84.49
2024-04-12T01:48:37.546Z,84.35
2024-04-12T01:51:05.487Z,85.65
2024-04-12T01:53:39.223Z,85.19
2024-04-12T01:56:06.444Z,85.30
2024-04-12T01:58:35.563Z,85.50
2024-04-12T02:01:05.133Z,85.77
2024-04-12T02:03:35.461Z,85.51
2024-04-12T02:06:06.692Z,84.64
2024-04-12T02:08:34.553Z,83.80
2024-04-12T02:11:07.309Z,85.77
2024-04-12T02:13:38.987Z,86.12
2024-04-12T02:16:07.147Z,87.16
2024-04-12T02:18:35.255Z,86.08
2024-04-12T02:21:11.899Z,86.12
2024-04-12T02:23:40.128Z,86.66
2024-04-12T02:26:06.840Z,86.85
2024-04-12T02:28:41.289Z,86.34
2024-04-12T02:46:42.397Z,92.78
2024-04-12T02:49:13.079Z,90.93
2024-04-12T02:51:48.749Z,89.29
2024-04-12T02:54:15.877Z,88.43
2024-04-12T02:56:45.943Z,88.07
2024-04-12T02:59:15.139Z,88.10
2024-04-12T03:01:42.516Z,87.70
2024-04-12T03:04:11.425Z,87.22
2024-04-12T03:06:39.617Z,86.53
2024-04-12T03:09:07.004Z,87.13
2024-04-12T03:11:37.539Z,86.36
2024-04-12T03:14:12.009Z,85.81
2024-04-12T03:16:43.907Z,85.64
2024-04-12T03:19:19.507Z,85.31
2024-04-12T03:21:52.429Z,84.54
2024-04-12T03:24:19.795Z,84.70
2024-04-12T03:26:49.052Z,84.16
2024-04-12T03:29:18.182Z,85.56
2024-04-12T03:31:48.530Z,85.67
2024-04-12T03:34:16.005Z,84.95
2024-04-12T03:36:48.599Z,84.52
2024-04-12T03:39:24.369Z,85.00
2024-04-12T03:41:52.724Z,84.76
2024-04-12T03:44:22.336Z,84.58
2024-04-12T03:46:52.280Z,83.43
2024-04-12T03:49:23.422Z,83.20
2024-04-12T03:51:55.601Z,84.17
2024-04-12T03:54:24.044Z,84.35
2024-04-12T03:56:51.668Z,83.44
2024-04-12T03:59:19.522Z,83.27
2024-04-12T04:01:47.118Z,83.33
2024-04-12T04:04:18.519Z,82.50
2024-04-12T04:06:47.320Z,82.97
2024-04-12T04:09:14.650Z,83.36
2024-04-12T04:11:43.853Z,83.70
2024-04-12T04:14:11.252Z,85.35
2024-04-12T04:16:38.113Z,84.52
2024-04-12T04:19:05.093Z,83.31
2024-04-12T04:21:34.575Z,83.94
2024-04-12T04:24:10.009Z,83.22
2024-04-12T04:26:38.119Z,83.81
2024-04-12T04:29:10.688Z,82.76
2024-04-12T04:31:51.486Z,83.28
2024-04-12T04:34:23.607Z,83.64
2024-04-12T04:36:51.075Z,83.64
2024-04-12T04:39:19.057Z,83.91
2024-04-12T04:41:51.391Z,83.60
2024-04-12T04:44:18.889Z,83.82
2024-04-12T04:46:50.511Z,83.60
2024-04-12T04:49:22.932Z,83.50
2024-04-12T04:51:52.564Z,84.38
2024-04-12T04:54:22.969Z,85.36
2024-04-12T04:57:03.109Z,84.75
2024-04-12T04:59:33.793Z,85.05
2024-04-12T05:02:02.131Z,84.60
2024-04-12T05:04:33.873Z,83.89
2024-04-12T05:07:00.541Z,83.82
2024-04-12T05:09:28.895Z,84.08
2024-04-12T05:11:58.650Z,82.89
2024-04-12T05:14:36.028Z,83.31
2024-04-12T05:17:11.003Z,83.04
2024-04-12T05:19:42.559Z,83.09
2024-04-12T05:22:39.844Z,82.99
2024-04-12T05:25:06.791Z,82.20
2024-04-12T05:27:34.331Z,83.08
2024-04-12T05:30:02.838Z,83.43
2024-04-12T05:32:34.348Z,83.11
2024-04-12T05:35:03.150Z,83.61
2024-04-12T05:37:37.317Z,83.48
2024-04-12T05:40:06.157Z,83.17
2024-04-12T05:42:32.800Z,82.97
2024-04-12T05:45:05.992Z,82.53
2024-04-12T05:47:41.714Z,83.52
2024-04-12T05:50:08.614Z,83.44
2024-04-12T05:52:36.674Z,83.73
2024-04-12T05:55:12.124Z,83.30
2024-04-12T05:57:38.865Z,83.40
2024-04-12T06:00:11.674Z,82.81
2024-04-12T06:02:38.932Z,83.55
2024-04-12T06:05:47.232Z,82.59
2024-04-12T06:08:16.821Z,84.11
2024-04-12T06:10:50.337Z,85.22
2024-04-12T06:13:18.702Z,85.79
2024-04-12T06:15:48.177Z,84.37
2024-04-12T06:18:33.116Z,83.93
2024-04-12T06:29:11.561Z,84.52
2024-04-12T06:31:42.936Z,85.50
2024-04-12T06:34:14.345Z,84.53
2024-04-12T06:36:47.050Z,84.00
2024-04-12T06:39:27.578Z,82.94
2024-04-12T06:41:55.337Z,83.52
2024-04-12T06:44:58.757Z,83.70
2024-04-12T06:47:27.307Z,83.64
2024-04-12T06:50:16.428Z,84.76
2024-04-12T06:52:43.193Z,84.79
2024-04-12T06:55:18.496Z,83.04
2024-04-12T06:57:45.780Z,84.67
2024-04-12T07:00:21.655Z,84.31
2024-04-12T07:03:17.793Z,84.72
2024-04-12T07:05:49.076Z,85.54
2024-04-12T07:08:17.703Z,83.41
2024-04-12T07:10:50.049Z,83.63
2024-04-12T07:13:18.026Z,83.21
2024-04-12T07:15:50.728Z,82.04
2024-04-12T07:18:18.006Z,82.77
2024-04-12T07:20:50.104Z,81.30
2024-04-12T07:23:17.326Z,82.75
2024-04-12T07:25:46.936Z,82.92
2024-04-12T07:28:16.927Z,81.44
2024-04-12T07:30:45.931Z,81.42
2024-04-12T07:33:13.999Z,80.57
2024-04-12T07:35:41.846Z,82.28
2024-04-12T07:38:09.709Z,83.11
2024-04-12T07:40:41.249Z,82.84
2024-04-12T07:43:12.284Z,81.80
2024-04-12T07:45:42.075Z,81.08
2024-04-12T07:48:21.604Z,80.76
2024-04-12T07:50:48.688Z,80.37
2024-04-12T07:53:24.611Z,84.13
2024-04-12T07:56:16.902Z,82.22
2024-04-12T07:59:17.824Z,80.47
2024-04-12T08:01:50.347Z,79.84
2024-04-12T08:04:27.294Z,79.24
2024-04-12T08:06:58.794Z,80.51
2024-04-12T08:09:36.598Z,79.34
2024-04-12T08:12:17.041Z,78.43
2024-04-12T08:14:54.914Z,78.99
2024-04-12T08:17:41.501Z,80.96
2024-04-12T08:20:27.017Z,82.09
2024-04-12T08:22:56.855Z,79.77
2024-04-12T08:25:28.499Z,80.64
2024-04-12T08:27:56.156Z,78.73
2024-04-12T08:30:23.577Z,78.00
2024-04-12T08:32:50.995Z,78.23
2024-04-12T08:35:22.072Z,78.26
2024-04-12T08:37:52.952Z,77.90
2024-04-12T08:40:26.421Z,79.04
2024-04-12T08:42:58.788Z,78.91
2024-04-12T08:45:31.819Z,78.61
2024-04-12T08:48:04.674Z,78.13
2024-04-12T08:50:37.044Z,78.31
2024-04-12T08:53:14.501Z,79.33
2024-04-12T08:55:44.104Z,77.54
2024-04-12T08:58:12.314Z,78.10
2024-04-12T09:00:40.974Z,77.27
2024-04-12T09:03:29.018Z,78.88
2024-04-12T09:06:00.946Z,78.10
2024-04-12T09:08:32.744Z,79.49
2024-04-12T09:11:08.186Z,77.50
2024-04-12T09:13:48.318Z,77.89
2024-04-12T09:16:20.754Z,76.88
2024-04-12T09:18:52.499Z,76.13
2024-04-12T09:24:32.828Z,79.18
2024-04-12T09:27:10.174Z,80.48
2024-04-12T09:29:45.165Z,79.01
2024-04-12T09:32:31.465Z,78.08
2024-04-12T09:35:03.769Z,77.63
2024-04-12T09:37:31.933Z,79.50
2024-04-12T09:40:02.984Z,78.00
2024-04-12T09:42:54.697Z,77.53
2024-04-12T09:45:23.889Z,78.21
2024-04-12T09:48:11.020Z,77.76
2024-04-12T09:51:05.549Z,77.30
2024-04-12T09:53:51.214Z,76.70
2024-04-12T09:56:36.489Z,75.88
2024-04-12T09:59:40.601Z,75.74
2024-04-12T10:02:28.918Z,76.69
2024-04-12T10:05:20.087Z,77.27
2024-04-12T10:08:05.658Z,76.39
2024-04-12T10:10:51.077Z,77.75
2024-04-12T10:13:36.860Z,77.23
2024-04-12T10:16:47.247Z,76.19
2024-04-12T10:19:33.067Z,76.29
2024-04-12T10:22:34.432Z,75.33
2024-04-12T10:25:23.922Z,77.97
2024-04-12T10:28:12.437Z,76.08
2024-04-12T10:31:05.459Z,75.64
2024-04-12T10:34:25.861Z,74.33
2024-04-12T10:37:13.223Z,75.99
2024-04-12T10:39:46.656Z,75.58
2024-04-12T10:42:27.465Z,74.32
2024-04-12T10:49:05.726Z,72.53
2024-04-12T10:51:37.263Z,74.33
2024-04-12T10:54:05.987Z,74.87
2024-04-12T10:56:32.936Z,74.76
2024-04-12T10:59:45.652Z,76.20
2024-04-12T11:02:12.723Z,73.81
2024-04-12T11:05:00.677Z,73.26
2024-04-12T11:07:28.990Z,73.34
2024-04-12T11:10:04.960Z,73.49
2024-04-12T11:12:47.286Z,73.54
2024-04-12T11:15:34.038Z,72.83
2024-04-12T11:18:23.794Z,71.12
2024-04-12T11:21:21.127Z,71.48
2024-04-12T11:24:23.286Z,71.50
2024-04-12T11:27:08.681Z,71.34
2024-04-12T11:30:09.761Z,72.09
2024-04-12T11:32:38.842Z,71.49
2024-04-12T11:35:06.774Z,70.83
2024-04-12T11:37:33.534Z,69.83
2024-04-12T11:40:05.305Z,71.12
2024-04-12T11:42:34.273Z,69.86
2024-04-12T11:46:16.041Z,71.49
2024-04-12T11:48:44.537Z,71.26
2024-04-12T11:51:11.498Z,69.49
2024-04-12T11:53:39.264Z,69.83
2024-04-12T11:56:06.168Z,69.39
2024-04-12T11:58:32.782Z,69.93
2024-04-12T12:08:41.919Z,68.89
2024-04-12T12:11:15.396Z,66.11
2024-04-12T12:13:45.622Z,65.99
2024-04-12T12:16:19.909Z,66.70
2024-04-12T12:18:46.756Z,64.74
2024-04-12T12:21:15.449Z,63.30
2024-04-12T12:29:43.739Z,62.97
2024-04-12T12:32:10.887Z,63.14
2024-04-12T12:38:34.163Z,62.19
2024-04-12T12:41:01.392Z,62.51
2024-04-12T12:43:31.070Z,61.09
2024-04-12T12:46:01.535Z,60.56
2024-04-12T12:48:31.314Z,60.50
2024-04-12T12:50:58.930Z,60.37
2024-04-12T12:54:16.866Z,61.29
2024-04-12T12:57:40.023Z,60.79
2024-04-12T13:00:08.207Z,60.99
2024-04-12T13:02:39.722Z,60.81
2024-04-12T13:05:32.387Z,59.29
2024-04-12T13:08:00.160Z,61.70
2024-04-12T13:10:28.967Z,61.95
2024-04-12T13:13:29.045Z,60.89
2024-04-12T13:15:55.898Z,61.73
2024-04-12T13:22:17.364Z,61.43
2024-04-12T13:24:45.281Z,61.24
2024-04-12T13:27:16.258Z,62.96
2024-04-12T13:37:56.591Z,59.86
2024-04-12T13:48:10.097Z,60.83
2024-04-12T13:50:55.898Z,61.02
2024-04-12T13:53:35.164Z,60.04
2024-04-12T13:56:34.421Z,61.89
2024-04-12T13:59:06.178Z,61.00
2024-04-12T14:09:32.993Z,60.04
2024-04-12T14:11:59.631Z,58.48
2024-04-12T14:14:26.323Z,59.33
2024-04-12T14:20:21.943Z,61.91
2024-04-12T14:23:42.319Z,60.13
2024-04-12T14:26:10.869Z,58.94
2024-04-12T14:28:40.689Z,59.99
2024-04-12T14:31:10.615Z,59.65
2024-04-12T14:33:39.951Z,59.62
2024-04-12T14:36:55.418Z,60.00
2024-04-12T14:39:30.854Z,58.86
2024-04-12T14:41:58.372Z,59.46
2024-04-12T14:44:25.348Z,59.55
2024-04-12T14:46:55.880Z,60.56
2024-04-12T14:53:25.161Z,59.62
2024-04-12T14:55:54.411Z,60.64
2024-04-12T14:58:23.413Z,59.36
2024-04-12T15:04:55.484Z,59.33
2024-04-12T15:07:43.864Z,59.95
2024-04-12T15:10:29.770Z,58.86
2024-04-12T15:19:42.798Z,61.01
2024-04-12T15:25:35.117Z,59.18
2024-04-12T15:28:20.463Z,60.62
2024-04-12T15:34:04.915Z,60.23
2024-04-12T15:37:05.544Z,60.15
2024-04-12T15:39:50.815Z,60.39
2024-04-12T15:42:40.094Z,61.35
2024-04-12T15:45:25.982Z,61.84
2024-04-12T15:47:55.883Z,61.86
2024-04-12T15:50:22.599Z,60.27
2024-04-12T15:56:06.802Z,63.01
2024-04-12T15:59:26.415Z,63.74
2024-04-12T16:02:11.918Z,62.09
2024-04-12T16:04:57.337Z,62.78
2024-04-12T16:07:42.741Z,63.82
2024-04-12T16:10:31.340Z,61.90
2024-04-12T16:13:03.745Z,63.10
2024-04-12T16:15:33.191Z,63.92
2024-04-12T16:18:38.911Z,62.16
2024-04-12T16:21:05.841Z,64.87
2024-04-12T16:23:35.704Z,63.34
2024-04-12T16:26:08.887Z,62.62
2024-04-12T16:28:38.997Z,63.81
2024-04-12T16:31:12.647Z,62.66
2024-04-12T16:33:40.025Z,62.65
2024-04-12T16:36:08.049Z,63.12
2024-04-12T16:42:43.748Z,63.83
2024-04-12T16:49:07.861Z,65.88
2024-04-12T16:51:51.799Z,65.12
2024-04-12T16:54:18.598Z,64.69
2024-04-12T16:56:48.359Z,65.86
2024-04-12T17:00:16.514Z,65.40
2024-04-12T17:03:55.767Z,66.89
2024-04-12T17:06:25.298Z,66.17
2024-04-12T17:09:11.897Z,66.93
2024-04-12T17:11:39.504Z,67.35
2024-04-12T17:14:06.755Z,67.07
2024-04-12T17:20:36.179Z,66.55
2024-04-12T17:23:13.070Z,67.91
2024-04-12T17:25:44.554Z,68.08
2024-04-12T17:28:18.999Z,67.54
2024-04-12T17:31:01.668Z,68.47
2024-04-12T17:33:31.141Z,68.96
2024-04-12T17:35:58.714Z,69.34
2024-04-12T17:42:12.993Z,68.96
2024-04-12T17:48:04.156Z,70.00
2024-04-12T17:50:32.864Z,70.43
2024-04-12T17:54:02.620Z,69.95
2024-04-12T17:56:29.316Z,70.59
2024-04-12T17:58:55.911Z,70.07
2024-04-12T18:01:24.341Z,69.96
2024-04-12T18:04:10.850Z,70.18
2024-04-12T18:06:39.838Z,69.52
2024-04-12T18:09:54.020Z,70.41
2024-04-12T18:12:20.800Z,70.56
2024-04-12T18:14:47.509Z,70.83
2024-04-12T18:21:39.906Z,71.16
2024-04-12T18:24:06.678Z,71.01
2024-04-12T18:26:33.267Z,71.45
2024-04-12T18:28:59.997Z,72.60
2024-04-12T18:31:28.374Z,71.54
2024-04-12T18:34:28.609Z,72.76
2024-04-12T18:37:33.679Z,71.92
2024-04-12T18:40:35.048Z,71.71
2024-04-12T18:43:31.264Z,72.17
2024-04-12T18:46:02.678Z,71.20
2024-04-12T18:48:55.388Z,70.98
2024-04-12T18:51:41.200Z,72.55
2024-04-12T18:54:15.974Z,72.22
2024-04-12T18:56:42.782Z,72.50
2024-04-12T18:59:09.694Z,73.56
2024-04-12T19:02:15.888Z,73.18
2024-04-12T19:04:48.973Z,74.51
2024-04-12T19:07:20.883Z,74.45
2024-04-12T19:10:18.608Z,73.91
2024-04-12T19:16:16.977Z,74.85
2024-04-12T19:18:46.606Z,74.82
2024-04-12T19:21:13.953Z,73.58
2024-04-12T19:23:40.800Z,74.50
2024-04-12T19:40:12.875Z,77.48
2024-04-12T19:54:38.664Z,78.63
2024-04-12T19:57:41.006Z,79.41
2024-04-12T20:01:36.128Z,79.92
2024-04-12T20:11:29.709Z,81.70
2024-04-12T21:11:30.603Z,92.24
2024-04-12T21:14:20.636Z,92.29
2024-04-12T21:17:10.174Z,92.15
2024-04-12T21:23:43.586Z,92.39
2024-04-12T21:26:34.513Z,92.60
2024-04-12T21:29:09.219Z,92.50
2024-04-12T21:31:49.107Z,93.63
2024-04-12T21:34:18.988Z,93.39
2024-04-12T21:36:46.398Z,93.01
2024-04-12T21:39:24.117Z,93.72
2024-04-12T21:42:02.339Z,93.26
2024-04-12T21:44:42.099Z,92.75
2024-04-12T21:47:22.003Z,92.75
2024-04-12T21:53:44.257Z,93.75
2024-04-12T21:56:27.402Z,93.94
2024-04-12T21:59:16.317Z,93.74
2024-04-12T22:01:53.896Z,93.79
2024-04-12T22:04:37.706Z,94.26
2024-04-12T22:07:53.195Z,94.50
2024-04-12T22:10:44.229Z,94.86
2024-04-12T22:21:24.328Z,96.77
2024-04-12T22:24:04.296Z,96.58
2024-04-12T22:28:02.741Z,95.44
2024-04-12T22:29:43.262Z,95.85
2024-04-12T22:32:30.370Z,96.40
2024-04-12T22:35:04.622Z,96.93
2024-04-12T22:49:54.620Z,96.95
2024-04-12T22:56:36.013Z,96.84
2024-04-12T22:59:13.294Z,96.72
2024-04-12T23:01:40.103Z,96.29
2024-04-12T23:04:39.855Z,97.70
2024-04-12T23:07:42.029Z,97.68
2024-04-12T23:17:28.856Z,96.17
2024-04-12T23:26:47.893Z,96.61
2024-04-12T23:33:35.860Z,96.79
2024-04-12T23:36:04.438Z,96.32
2024-04-12T23:38:31.220Z,96.70
2024-04-12T23:44:49.066Z,95.14
2024-04-12T23:47:15.956Z,95.08
2024-04-12T23:49:43.110Z,94.79
2024-04-12T23:52:09.841Z,93.50
2024-04-12T23:54:38.216Z,94.40
2024-04-12T23:58:03.867Z,94.38
